sensor_id;sensor_type;location;lat;lon;timestamp;P1;durP1;ratioP1;P2;durP2;ratioP2
47529;SDS011;33272;51.922;7.730;2023-05-27T00:00:43;11.97;;;4.80;;
47529;SDS011;33272;51.922;7.730;2023-05-27T00:03:10;10.97;;;4.70;;
47529;SDS011;33272;51.922;7.730;2023-05-27T00:05:39;11.57;;;4.77;;
47529;SDS011;33272;51.922;7.730;2023-05-27T00:08:06;11.90;;;4.60;;
47529;SDS011;33272;51.922;7.730;2023-05-27T00:10:33;8.77;;;4.37;;
47529;SDS011;33272;51.922;7.730;2023-05-27T00:13:00;11.20;;;4.73;;
47529;SDS011;33272;51.922;7.730;2023-05-27T00:15:27;11.97;;;5.47;;
47529;SDS011;33272;51.922;7.730;2023-05-27T00:17:55;11.37;;;5.07;;
47529;SDS011;33272;51.922;7.730;2023-05-27T00:20:25;15.67;;;5.33;;
47529;SDS011;33272;51.922;7.730;2023-05-27T00:22:53;10.93;;;5.07;;
47529;SDS011;33272;51.922;7.730;2023-05-27T00:25:21;10.70;;;4.83;;
47529;SDS011;33272;51.922;7.730;2023-05-27T00:27:48;12.53;;;5.03;;
47529;SDS011;33272;51.922;7.730;2023-05-27T00:30:15;17.17;;;5.53;;
47529;SDS011;33272;51.922;7.730;2023-05-27T00:32:42;11.27;;;5.40;;
47529;SDS011;33272;51.922;7.730;2023-05-27T00:35:09;10.43;;;5.20;;
47529;SDS011;33272;51.922;7.730;2023-05-27T00:37:37;9.13;;;4.80;;
47529;SDS011;33272;51.922;7.730;2023-05-27T00:40:07;10.27;;;4.47;;
47529;SDS011;33272;51.922;7.730;2023-05-27T00:42:37;12.40;;;4.97;;
47529;SDS011;33272;51.922;7.730;2023-05-27T00:45:04;7.90;;;4.70;;
47529;SDS011;33272;51.922;7.730;2023-05-27T00:47:33;11.00;;;4.70;;
47529;SDS011;33272;51.922;7.730;2023-05-27T00:50:00;14.73;;;5.67;;
47529;SDS011;33272;51.922;7.730;2023-05-27T00:52:29;9.60;;;4.50;;
47529;SDS011;33272;51.922;7.730;2023-05-27T00:54:57;12.83;;;5.23;;
47529;SDS011;33272;51.922;7.730;2023-05-27T00:57:26;10.83;;;5.30;;
47529;SDS011;33272;51.922;7.730;2023-05-27T00:59:54;9.73;;;4.63;;
47529;SDS011;33272;51.922;7.730;2023-05-27T01:02:21;15.53;;;5.33;;
47529;SDS011;33272;51.922;7.730;2023-05-27T01:04:48;9.63;;;5.07;;
47529;SDS011;33272;51.922;7.730;2023-05-27T01:07:17;13.63;;;5.87;;
47529;SDS011;33272;51.922;7.730;2023-05-27T01:09:53;12.70;;;4.87;;
47529;SDS011;33272;51.922;7.730;2023-05-27T01:12:29;9.97;;;5.20;;
47529;SDS011;33272;51.922;7.730;2023-05-27T01:15:04;11.40;;;5.20;;
47529;SDS011;33272;51.922;7.730;2023-05-27T01:17:33;10.73;;;5.10;;
47529;SDS011;33272;51.922;7.730;2023-05-27T01:20:02;12.77;;;5.50;;
47529;SDS011;33272;51.922;7.730;2023-05-27T01:22:32;12.97;;;6.03;;
47529;SDS011;33272;51.922;7.730;2023-05-27T01:25:01;10.40;;;4.83;;
47529;SDS011;33272;51.922;7.730;2023-05-27T01:27:28;15.37;;;5.90;;
47529;SDS011;33272;51.922;7.730;2023-05-27T01:29:55;14.00;;;5.77;;
47529;SDS011;33272;51.922;7.730;2023-05-27T01:32:24;11.40;;;5.67;;
47529;SDS011;33272;51.922;7.730;2023-05-27T01:34:57;13.30;;;5.67;;
47529;SDS011;33272;51.922;7.730;2023-05-27T01:37:35;10.93;;;5.57;;
47529;SDS011;33272;51.922;7.730;2023-05-27T01:40:04;11.87;;;5.37;;
47529;SDS011;33272;51.922;7.730;2023-05-27T01:42:33;9.67;;;5.63;;
47529;SDS011;33272;51.922;7.730;2023-05-27T01:45:02;11.43;;;6.27;;
47529;SDS011;33272;51.922;7.730;2023-05-27T01:47:31;13.77;;;6.10;;
47529;SDS011;33272;51.922;7.730;2023-05-27T01:49:58;13.47;;;5.83;;
47529;SDS011;33272;51.922;7.730;2023-05-27T01:52:26;11.93;;;6.17;;
47529;SDS011;33272;51.922;7.730;2023-05-27T01:54:54;10.03;;;5.27;;
47529;SDS011;33272;51.922;7.730;2023-05-27T01:57:21;8.90;;;5.63;;
47529;SDS011;33272;51.922;7.730;2023-05-27T01:59:50;11.47;;;6.33;;
47529;SDS011;33272;51.922;7.730;2023-05-27T02:02:17;12.47;;;5.83;;
47529;SDS011;33272;51.922;7.730;2023-05-27T02:04:44;10.20;;;5.43;;
47529;SDS011;33272;51.922;7.730;2023-05-27T02:07:11;10.17;;;5.83;;
47529;SDS011;33272;51.922;7.730;2023-05-27T02:09:38;12.47;;;5.40;;
47529;SDS011;33272;51.922;7.730;2023-05-27T02:12:07;8.67;;;5.77;;
47529;SDS011;33272;51.922;7.730;2023-05-27T02:14:34;13.23;;;6.13;;
47529;SDS011;33272;51.922;7.730;2023-05-27T02:17:03;10.50;;;6.17;;
47529;SDS011;33272;51.922;7.730;2023-05-27T02:19:30;15.90;;;6.30;;
47529;SDS011;33272;51.922;7.730;2023-05-27T02:21:57;13.40;;;6.80;;
47529;SDS011;33272;51.922;7.730;2023-05-27T02:24:24;14.00;;;6.77;;
47529;SDS011;33272;51.922;7.730;2023-05-27T02:26:51;9.97;;;5.50;;
47529;SDS011;33272;51.922;7.730;2023-05-27T02:29:19;13.37;;;7.50;;
47529;SDS011;33272;51.922;7.730;2023-05-27T02:31:46;13.20;;;5.90;;
47529;SDS011;33272;51.922;7.730;2023-05-27T02:34:13;12.80;;;6.00;;
47529;SDS011;33272;51.922;7.730;2023-05-27T02:36:40;11.60;;;5.77;;
47529;SDS011;33272;51.922;7.730;2023-05-27T02:39:08;12.77;;;5.77;;
47529;SDS011;33272;51.922;7.730;2023-05-27T02:41:35;12.00;;;6.37;;
47529;SDS011;33272;51.922;7.730;2023-05-27T02:44:02;10.00;;;5.60;;
47529;SDS011;33272;51.922;7.730;2023-05-27T02:46:32;9.37;;;5.60;;
47529;SDS011;33272;51.922;7.730;2023-05-27T02:48:59;10.43;;;5.47;;
47529;SDS011;33272;51.922;7.730;2023-05-27T02:51:27;12.67;;;5.67;;
47529;SDS011;33272;51.922;7.730;2023-05-27T02:53:54;12.80;;;7.13;;
47529;SDS011;33272;51.922;7.730;2023-05-27T02:56:21;13.07;;;6.53;;
47529;SDS011;33272;51.922;7.730;2023-05-27T02:58:50;11.77;;;5.80;;
47529;SDS011;33272;51.922;7.730;2023-05-27T03:01:18;14.20;;;6.50;;
47529;SDS011;33272;51.922;7.730;2023-05-27T03:03:46;12.87;;;7.87;;
47529;SDS011;33272;51.922;7.730;2023-05-27T03:06:13;13.53;;;7.40;;
47529;SDS011;33272;51.922;7.730;2023-05-27T03:08:40;14.57;;;6.70;;
47529;SDS011;33272;51.922;7.730;2023-05-27T03:11:09;10.70;;;6.33;;
47529;SDS011;33272;51.922;7.730;2023-05-27T03:13:36;14.77;;;8.13;;
47529;SDS011;33272;51.922;7.730;2023-05-27T03:16:03;12.53;;;7.47;;
47529;SDS011;33272;51.922;7.730;2023-05-27T03:18:30;10.50;;;6.77;;
47529;SDS011;33272;51.922;7.730;2023-05-27T03:20:58;10.73;;;6.00;;
47529;SDS011;33272;51.922;7.730;2023-05-27T03:23:26;14.90;;;6.37;;
47529;SDS011;33272;51.922;7.730;2023-05-27T03:25:53;13.07;;;5.90;;
47529;SDS011;33272;51.922;7.730;2023-05-27T03:28:20;11.63;;;5.97;;
47529;SDS011;33272;51.922;7.730;2023-05-27T03:30:47;12.13;;;6.20;;
47529;SDS011;33272;51.922;7.730;2023-05-27T03:33:14;14.90;;;6.93;;
47529;SDS011;33272;51.922;7.730;2023-05-27T03:35:41;13.67;;;6.40;;
47529;SDS011;33272;51.922;7.730;2023-05-27T03:38:10;11.53;;;6.03;;
47529;SDS011;33272;51.922;7.730;2023-05-27T03:40:37;11.20;;;6.07;;
47529;SDS011;33272;51.922;7.730;2023-05-27T03:43:03;10.57;;;5.93;;
47529;SDS011;33272;51.922;7.730;2023-05-27T03:45:31;13.00;;;6.87;;
47529;SDS011;33272;51.922;7.730;2023-05-27T03:47:57;12.23;;;7.13;;
47529;SDS011;33272;51.922;7.730;2023-05-27T03:50:24;11.30;;;5.87;;
47529;SDS011;33272;51.922;7.730;2023-05-27T03:52:51;12.17;;;6.23;;
47529;SDS011;33272;51.922;7.730;2023-05-27T03:55:20;13.20;;;7.23;;
47529;SDS011;33272;51.922;7.730;2023-05-27T03:57:48;14.00;;;6.53;;
47529;SDS011;33272;51.922;7.730;2023-05-27T04:00:15;13.90;;;6.20;;
47529;SDS011;33272;51.922;7.730;2023-05-27T04:02:43;12.20;;;8.00;;
47529;SDS011;33272;51.922;7.730;2023-05-27T04:05:10;12.23;;;6.93;;
47529;SDS011;33272;51.922;7.730;2023-05-27T04:07:37;15.60;;;9.37;;
47529;SDS011;33272;51.922;7.730;2023-05-27T04:10:04;14.53;;;8.87;;
47529;SDS011;33272;51.922;7.730;2023-05-27T04:12:34;17.43;;;9.00;;
47529;SDS011;33272;51.922;7.730;2023-05-27T04:15:01;16.03;;;7.93;;
47529;SDS011;33272;51.922;7.730;2023-05-27T04:17:28;13.97;;;7.30;;
47529;SDS011;33272;51.922;7.730;2023-05-27T04:19:55;15.50;;;7.87;;
47529;SDS011;33272;51.922;7.730;2023-05-27T04:22:22;13.13;;;6.77;;
47529;SDS011;33272;51.922;7.730;2023-05-27T04:24:49;10.67;;;5.53;;
47529;SDS011;33272;51.922;7.730;2023-05-27T04:27:17;16.73;;;6.60;;
47529;SDS011;33272;51.922;7.730;2023-05-27T04:29:45;17.47;;;6.40;;
47529;SDS011;33272;51.922;7.730;2023-05-27T04:32:12;13.17;;;6.50;;
47529;SDS011;33272;51.922;7.730;2023-05-27T04:34:42;13.30;;;6.43;;
47529;SDS011;33272;51.922;7.730;2023-05-27T04:37:09;12.43;;;6.50;;
47529;SDS011;33272;51.922;7.730;2023-05-27T04:39:36;12.93;;;5.83;;
47529;SDS011;33272;51.922;7.730;2023-05-27T04:42:05;10.10;;;5.33;;
47529;SDS011;33272;51.922;7.730;2023-05-27T04:44:34;12.50;;;5.97;;
47529;SDS011;33272;51.922;7.730;2023-05-27T04:47:02;14.00;;;6.57;;
47529;SDS011;33272;51.922;7.730;2023-05-27T04:49:30;12.10;;;5.17;;
47529;SDS011;33272;51.922;7.730;2023-05-27T04:51:57;12.80;;;5.23;;
47529;SDS011;33272;51.922;7.730;2023-05-27T04:54:24;12.53;;;5.27;;
47529;SDS011;33272;51.922;7.730;2023-05-27T04:56:52;12.50;;;5.63;;
47529;SDS011;33272;51.922;7.730;2023-05-27T04:59:19;18.10;;;6.67;;
47529;SDS011;33272;51.922;7.730;2023-05-27T05:01:47;13.63;;;5.37;;
47529;SDS011;33272;51.922;7.730;2023-05-27T05:04:36;15.57;;;5.07;;
47529;SDS011;33272;51.922;7.730;2023-05-27T05:07:03;10.60;;;5.43;;
47529;SDS011;33272;51.922;7.730;2023-05-27T05:09:30;16.77;;;5.27;;
47529;SDS011;33272;51.922;7.730;2023-05-27T05:11:57;12.30;;;5.23;;
47529;SDS011;33272;51.922;7.730;2023-05-27T05:14:24;13.90;;;5.57;;
47529;SDS011;33272;51.922;7.730;2023-05-27T05:16:51;14.03;;;5.77;;
47529;SDS011;33272;51.922;7.730;2023-05-27T05:19:18;12.47;;;4.77;;
47529;SDS011;33272;51.922;7.730;2023-05-27T05:21:46;10.97;;;4.67;;
47529;SDS011;33272;51.922;7.730;2023-05-27T05:24:13;12.20;;;5.07;;
47529;SDS011;33272;51.922;7.730;2023-05-27T05:26:40;12.53;;;5.77;;
47529;SDS011;33272;51.922;7.730;2023-05-27T05:29:09;11.87;;;4.80;;
47529;SDS011;33272;51.922;7.730;2023-05-27T05:31:36;10.43;;;5.07;;
47529;SDS011;33272;51.922;7.730;2023-05-27T05:34:03;11.23;;;5.30;;
47529;SDS011;33272;51.922;7.730;2023-05-27T05:36:30;14.33;;;4.83;;
47529;SDS011;33272;51.922;7.730;2023-05-27T05:38:58;11.50;;;5.37;;
47529;SDS011;33272;51.922;7.730;2023-05-27T05:41:25;12.33;;;5.13;;
47529;SDS011;33272;51.922;7.730;2023-05-27T05:43:52;13.63;;;5.60;;
47529;SDS011;33272;51.922;7.730;2023-05-27T05:46:19;13.03;;;5.70;;
47529;SDS011;33272;51.922;7.730;2023-05-27T05:48:46;14.03;;;5.33;;
47529;SDS011;33272;51.922;7.730;2023-05-27T05:51:13;15.67;;;5.00;;
47529;SDS011;33272;51.922;7.730;2023-05-27T05:53:40;13.23;;;4.90;;
47529;SDS011;33272;51.922;7.730;2023-05-27T05:56:08;16.00;;;4.90;;
47529;SDS011;33272;51.922;7.730;2023-05-27T05:58:35;14.33;;;5.20;;
47529;SDS011;33272;51.922;7.730;2023-05-27T06:01:02;11.23;;;4.43;;
47529;SDS011;33272;51.922;7.730;2023-05-27T06:03:29;13.93;;;5.57;;
47529;SDS011;33272;51.922;7.730;2023-05-27T06:05:58;15.53;;;4.73;;
47529;SDS011;33272;51.922;7.730;2023-05-27T06:08:25;13.67;;;4.83;;
47529;SDS011;33272;51.922;7.730;2023-05-27T06:10:52;8.93;;;4.63;;
47529;SDS011;33272;51.922;7.730;2023-05-27T06:13:21;15.43;;;4.90;;
47529;SDS011;33272;51.922;7.730;2023-05-27T06:15:48;9.57;;;4.10;;
47529;SDS011;33272;51.922;7.730;2023-05-27T06:18:15;12.03;;;5.43;;
47529;SDS011;33272;51.922;7.730;2023-05-27T06:20:42;11.27;;;4.60;;
47529;SDS011;33272;51.922;7.730;2023-05-27T06:23:09;10.97;;;4.43;;
47529;SDS011;33272;51.922;7.730;2023-05-27T06:25:36;15.97;;;5.20;;
47529;SDS011;33272;51.922;7.730;2023-05-27T06:28:03;10.20;;;4.77;;
47529;SDS011;33272;51.922;7.730;2023-05-27T06:30:32;11.30;;;4.57;;
47529;SDS011;33272;51.922;7.730;2023-05-27T06:32:59;10.53;;;4.53;;
47529;SDS011;33272;51.922;7.730;2023-05-27T06:35:26;11.20;;;4.70;;
47529;SDS011;33272;51.922;7.730;2023-05-27T06:37:53;11.23;;;4.97;;
47529;SDS011;33272;51.922;7.730;2023-05-27T06:40:20;13.80;;;5.13;;
47529;SDS011;33272;51.922;7.730;2023-05-27T06:42:47;14.97;;;4.27;;
47529;SDS011;33272;51.922;7.730;2023-05-27T06:45:14;9.43;;;4.40;;
47529;SDS011;33272;51.922;7.730;2023-05-27T06:47:42;11.10;;;4.93;;
47529;SDS011;33272;51.922;7.730;2023-05-27T06:50:09;11.17;;;4.30;;
47529;SDS011;33272;51.922;7.730;2023-05-27T06:52:37;13.20;;;4.90;;
47529;SDS011;33272;51.922;7.730;2023-05-27T06:55:04;14.20;;;4.63;;
47529;SDS011;33272;51.922;7.730;2023-05-27T06:57:32;14.83;;;4.80;;
47529;SDS011;33272;51.922;7.730;2023-05-27T06:59:59;11.13;;;4.73;;
47529;SDS011;33272;51.922;7.730;2023-05-27T07:02:26;10.77;;;5.13;;
47529;SDS011;33272;51.922;7.730;2023-05-27T07:04:54;13.73;;;4.93;;
47529;SDS011;33272;51.922;7.730;2023-05-27T07:07:21;12.33;;;5.00;;
47529;SDS011;33272;51.922;7.730;2023-05-27T07:09:48;12.43;;;4.67;;
47529;SDS011;33272;51.922;7.730;2023-05-27T07:12:15;13.37;;;5.53;;
47529;SDS011;33272;51.922;7.730;2023-05-27T07:14:43;13.60;;;4.90;;
47529;SDS011;33272;51.922;7.730;2023-05-27T07:17:10;10.80;;;5.23;;
47529;SDS011;33272;51.922;7.730;2023-05-27T07:19:38;10.27;;;4.73;;
47529;SDS011;33272;51.922;7.730;2023-05-27T07:22:06;13.63;;;5.30;;
47529;SDS011;33272;51.922;7.730;2023-05-27T07:24:33;13.40;;;5.10;;
47529;SDS011;33272;51.922;7.730;2023-05-27T07:27:00;11.43;;;5.33;;
47529;SDS011;33272;51.922;7.730;2023-05-27T07:29:27;10.03;;;4.60;;
47529;SDS011;33272;51.922;7.730;2023-05-27T07:31:54;12.23;;;4.77;;
47529;SDS011;33272;51.922;7.730;2023-05-27T07:34:21;13.80;;;5.60;;
47529;SDS011;33272;51.922;7.730;2023-05-27T07:36:48;9.90;;;4.70;;
47529;SDS011;33272;51.922;7.730;2023-05-27T07:39:17;13.23;;;5.17;;
47529;SDS011;33272;51.922;7.730;2023-05-27T07:41:44;11.13;;;4.97;;
47529;SDS011;33272;51.922;7.730;2023-05-27T07:44:11;12.17;;;5.03;;
47529;SDS011;33272;51.922;7.730;2023-05-27T07:46:38;13.27;;;5.63;;
47529;SDS011;33272;51.922;7.730;2023-05-27T07:49:05;14.27;;;5.33;;
47529;SDS011;33272;51.922;7.730;2023-05-27T07:51:32;10.17;;;5.10;;
47529;SDS011;33272;51.922;7.730;2023-05-27T07:53:59;11.97;;;4.87;;
47529;SDS011;33272;51.922;7.730;2023-05-27T07:56:27;14.27;;;5.50;;
47529;SDS011;33272;51.922;7.730;2023-05-27T07:58:54;11.00;;;4.90;;
47529;SDS011;33272;51.922;7.730;2023-05-27T08:01:21;11.63;;;5.30;;
47529;SDS011;33272;51.922;7.730;2023-05-27T08:03:49;12.53;;;5.07;;
47529;SDS011;33272;51.922;7.730;2023-05-27T08:06:16;10.80;;;4.67;;
47529;SDS011;33272;51.922;7.730;2023-05-27T08:08:44;14.00;;;5.57;;
47529;SDS011;33272;51.922;7.730;2023-05-27T08:11:12;13.23;;;5.13;;
47529;SDS011;33272;51.922;7.730;2023-05-27T08:13:41;12.80;;;4.90;;
47529;SDS011;33272;51.922;7.730;2023-05-27T08:16:08;10.70;;;5.00;;
47529;SDS011;33272;51.922;7.730;2023-05-27T08:18:35;14.87;;;4.97;;
47529;SDS011;33272;51.922;7.730;2023-05-27T08:21:02;13.23;;;5.27;;
47529;SDS011;33272;51.922;7.730;2023-05-27T08:23:29;10.93;;;5.60;;
47529;SDS011;33272;51.922;7.730;2023-05-27T08:25:56;11.37;;;5.50;;
47529;SDS011;33272;51.922;7.730;2023-05-27T08:28:23;12.37;;;5.40;;
47529;SDS011;33272;51.922;7.730;2023-05-27T08:30:52;9.70;;;4.70;;
47529;SDS011;33272;51.922;7.730;2023-05-27T08:33:19;12.70;;;5.60;;
47529;SDS011;33272;51.922;7.730;2023-05-27T08:35:46;11.53;;;5.57;;
47529;SDS011;33272;51.922;7.730;2023-05-27T08:38:13;11.90;;;5.23;;
47529;SDS011;33272;51.922;7.730;2023-05-27T08:40:40;11.10;;;5.37;;
47529;SDS011;33272;51.922;7.730;2023-05-27T08:43:07;12.90;;;5.53;;
47529;SDS011;33272;51.922;7.730;2023-05-27T08:45:34;11.97;;;4.87;;
47529;SDS011;33272;51.922;7.730;2023-05-27T08:48:03;13.50;;;5.07;;
47529;SDS011;33272;51.922;7.730;2023-05-27T08:50:31;11.80;;;5.57;;
47529;SDS011;33272;51.922;7.730;2023-05-27T08:52:57;12.87;;;5.93;;
47529;SDS011;33272;51.922;7.730;2023-05-27T08:55:26;10.17;;;5.03;;
47529;SDS011;33272;51.922;7.730;2023-05-27T08:57:56;13.20;;;5.30;;
47529;SDS011;33272;51.922;7.730;2023-05-27T09:00:25;11.17;;;5.33;;
47529;SDS011;33272;51.922;7.730;2023-05-27T09:02:52;13.30;;;5.97;;
47529;SDS011;33272;51.922;7.730;2023-05-27T09:05:22;10.67;;;4.67;;
47529;SDS011;33272;51.922;7.730;2023-05-27T09:07:49;11.40;;;4.70;;
47529;SDS011;33272;51.922;7.730;2023-05-27T09:10:16;12.00;;;5.63;;
47529;SDS011;33272;51.922;7.730;2023-05-27T09:12:44;11.80;;;5.33;;
47529;SDS011;33272;51.922;7.730;2023-05-27T09:15:12;9.40;;;5.10;;
47529;SDS011;33272;51.922;7.730;2023-05-27T09:17:40;10.87;;;5.13;;
47529;SDS011;33272;51.922;7.730;2023-05-27T09:20:08;10.63;;;5.13;;
47529;SDS011;33272;51.922;7.730;2023-05-27T09:22:38;9.83;;;4.80;;
47529;SDS011;33272;51.922;7.730;2023-05-27T09:25:07;11.10;;;5.37;;
47529;SDS011;33272;51.922;7.730;2023-05-27T09:27:35;10.07;;;4.40;;
47529;SDS011;33272;51.922;7.730;2023-05-27T09:30:08;13.53;;;5.40;;
47529;SDS011;33272;51.922;7.730;2023-05-27T09:32:36;10.23;;;4.97;;
47529;SDS011;33272;51.922;7.730;2023-05-27T09:35:05;11.63;;;5.00;;
47529;SDS011;33272;51.922;7.730;2023-05-27T09:37:33;10.73;;;4.97;;
47529;SDS011;33272;51.922;7.730;2023-05-27T09:40:05;12.13;;;5.13;;
47529;SDS011;33272;51.922;7.730;2023-05-27T09:42:41;8.17;;;5.43;;
47529;SDS011;33272;51.922;7.730;2023-05-27T09:45:10;13.67;;;4.80;;
47529;SDS011;33272;51.922;7.730;2023-05-27T09:47:39;10.37;;;4.60;;
47529;SDS011;33272;51.922;7.730;2023-05-27T09:50:08;13.80;;;5.50;;
47529;SDS011;33272;51.922;7.730;2023-05-27T09:52:39;14.23;;;4.90;;
47529;SDS011;33272;51.922;7.730;2023-05-27T09:55:08;9.67;;;5.03;;
47529;SDS011;33272;51.922;7.730;2023-05-27T09:57:38;15.90;;;4.83;;
47529;SDS011;33272;51.922;7.730;2023-05-27T10:00:06;11.27;;;4.80;;
47529;SDS011;33272;51.922;7.730;2023-05-27T10:02:38;12.63;;;4.40;;
47529;SDS011;33272;51.922;7.730;2023-05-27T10:05:07;13.27;;;5.17;;
47529;SDS011;33272;51.922;7.730;2023-05-27T10:07:36;10.27;;;5.10;;
47529;SDS011;33272;51.922;7.730;2023-05-27T10:10:06;9.80;;;5.10;;
47529;SDS011;33272;51.922;7.730;2023-05-27T10:12:37;9.70;;;4.70;;
47529;SDS011;33272;51.922;7.730;2023-05-27T10:15:05;11.03;;;4.60;;
47529;SDS011;33272;51.922;7.730;2023-05-27T10:17:41;11.50;;;4.90;;
47529;SDS011;33272;51.922;7.730;2023-05-27T10:20:09;12.80;;;4.70;;
47529;SDS011;33272;51.922;7.730;2023-05-27T10:22:42;9.97;;;4.90;;
47529;SDS011;33272;51.922;7.730;2023-05-27T10:25:12;18.50;;;5.03;;
47529;SDS011;33272;51.922;7.730;2023-05-27T10:27:42;11.97;;;4.60;;
47529;SDS011;33272;51.922;7.730;2023-05-27T10:30:11;11.40;;;4.87;;
47529;SDS011;33272;51.922;7.730;2023-05-27T10:32:47;15.70;;;4.70;;
47529;SDS011;33272;51.922;7.730;2023-05-27T10:35:15;11.47;;;5.20;;
47529;SDS011;33272;51.922;7.730;2023-05-27T10:37:43;11.50;;;5.67;;
47529;SDS011;33272;51.922;7.730;2023-05-27T10:40:13;11.93;;;4.90;;
47529;SDS011;33272;51.922;7.730;2023-05-27T10:42:57;11.83;;;4.40;;
47529;SDS011;33272;51.922;7.730;2023-05-27T10:45:31;11.20;;;4.50;;
47529;SDS011;33272;51.922;7.730;2023-05-27T10:47:59;7.73;;;4.57;;
47529;SDS011;33272;51.922;7.730;2023-05-27T10:50:29;11.93;;;4.87;;
47529;SDS011;33272;51.922;7.730;2023-05-27T10:52:59;12.03;;;4.97;;
47529;SDS011;33272;51.922;7.730;2023-05-27T10:55:29;9.60;;;4.57;;
47529;SDS011;33272;51.922;7.730;2023-05-27T10:57:57;9.53;;;4.53;;
47529;SDS011;33272;51.922;7.730;2023-05-27T11:00:25;12.30;;;4.53;;
47529;SDS011;33272;51.922;7.730;2023-05-27T11:02:53;10.30;;;5.03;;
47529;SDS011;33272;51.922;7.730;2023-05-27T11:05:26;13.93;;;5.33;;
47529;SDS011;33272;51.922;7.730;2023-05-27T11:07:56;13.63;;;4.77;;
47529;SDS011;33272;51.922;7.730;2023-05-27T11:10:25;14.33;;;4.43;;
47529;SDS011;33272;51.922;7.730;2023-05-27T11:12:54;10.73;;;4.63;;
47529;SDS011;33272;51.922;7.730;2023-05-27T11:15:21;10.30;;;4.10;;
47529;SDS011;33272;51.922;7.730;2023-05-27T11:17:47;10.83;;;4.37;;
47529;SDS011;33272;51.922;7.730;2023-05-27T11:20:15;10.43;;;4.80;;
47529;SDS011;33272;51.922;7.730;2023-05-27T11:22:48;12.53;;;4.67;;
47529;SDS011;33272;51.922;7.730;2023-05-27T11:25:16;10.77;;;4.60;;
47529;SDS011;33272;51.922;7.730;2023-05-27T11:27:43;8.77;;;4.50;;
47529;SDS011;33272;51.922;7.730;2023-05-27T11:30:12;11.13;;;4.73;;
47529;SDS011;33272;51.922;7.730;2023-05-27T11:32:41;13.87;;;4.67;;
47529;SDS011;33272;51.922;7.730;2023-05-27T11:35:12;12.40;;;5.03;;
47529;SDS011;33272;51.922;7.730;2023-05-27T11:37:39;11.10;;;4.43;;
47529;SDS011;33272;51.922;7.730;2023-05-27T11:40:10;10.20;;;4.27;;
47529;SDS011;33272;51.922;7.730;2023-05-27T11:42:42;8.80;;;4.50;;
47529;SDS011;33272;51.922;7.730;2023-05-27T11:45:15;10.27;;;4.43;;
47529;SDS011;33272;51.922;7.730;2023-05-27T11:47:44;11.47;;;4.37;;
47529;SDS011;33272;51.922;7.730;2023-05-27T11:50:16;10.57;;;4.73;;
47529;SDS011;33272;51.922;7.730;2023-05-27T11:52:51;10.73;;;4.67;;
47529;SDS011;33272;51.922;7.730;2023-05-27T11:55:19;10.70;;;4.00;;
47529;SDS011;33272;51.922;7.730;2023-05-27T11:57:46;9.60;;;4.13;;
47529;SDS011;33272;51.922;7.730;2023-05-27T12:00:13;12.77;;;4.53;;
47529;SDS011;33272;51.922;7.730;2023-05-27T12:02:43;10.07;;;4.27;;
47529;SDS011;33272;51.922;7.730;2023-05-27T12:05:10;10.83;;;4.77;;
47529;SDS011;33272;51.922;7.730;2023-05-27T12:07:37;9.53;;;4.10;;
47529;SDS011;33272;51.922;7.730;2023-05-27T12:10:06;11.37;;;4.90;;
47529;SDS011;33272;51.922;7.730;2023-05-27T12:12:34;13.37;;;4.70;;
47529;SDS011;33272;51.922;7.730;2023-05-27T12:15:01;8.53;;;3.83;;
47529;SDS011;33272;51.922;7.730;2023-05-27T12:17:30;9.70;;;4.40;;
47529;SDS011;33272;51.922;7.730;2023-05-27T12:19:57;9.60;;;4.30;;
47529;SDS011;33272;51.922;7.730;2023-05-27T12:22:24;9.13;;;4.47;;
47529;SDS011;33272;51.922;7.730;2023-05-27T12:24:51;9.10;;;4.53;;
47529;SDS011;33272;51.922;7.730;2023-05-27T12:27:19;9.77;;;4.20;;
47529;SDS011;33272;51.922;7.730;2023-05-27T12:29:46;10.10;;;4.40;;
47529;SDS011;33272;51.922;7.730;2023-05-27T12:32:13;10.80;;;4.20;;
47529;SDS011;33272;51.922;7.730;2023-05-27T12:34:42;7.80;;;3.97;;
47529;SDS011;33272;51.922;7.730;2023-05-27T12:37:08;9.93;;;3.90;;
47529;SDS011;33272;51.922;7.730;2023-05-27T12:39:36;9.90;;;4.07;;
47529;SDS011;33272;51.922;7.730;2023-05-27T12:42:03;8.20;;;4.20;;
47529;SDS011;33272;51.922;7.730;2023-05-27T12:44:30;7.77;;;3.97;;
47529;SDS011;33272;51.922;7.730;2023-05-27T12:46:57;7.67;;;4.27;;
47529;SDS011;33272;51.922;7.730;2023-05-27T12:49:24;8.67;;;4.10;;
47529;SDS011;33272;51.922;7.730;2023-05-27T12:51:54;9.17;;;4.37;;
47529;SDS011;33272;51.922;7.730;2023-05-27T12:54:21;10.70;;;4.20;;
47529;SDS011;33272;51.922;7.730;2023-05-27T12:56:48;5.87;;;4.00;;
47529;SDS011;33272;51.922;7.730;2023-05-27T12:59:15;6.97;;;3.17;;
47529;SDS011;33272;51.922;7.730;2023-05-27T13:01:42;7.83;;;3.77;;
47529;SDS011;33272;51.922;7.730;2023-05-27T13:04:09;9.50;;;4.10;;
47529;SDS011;33272;51.922;7.730;2023-05-27T13:06:36;10.37;;;3.77;;
47529;SDS011;33272;51.922;7.730;2023-05-27T13:09:04;10.97;;;3.73;;
47529;SDS011;33272;51.922;7.730;2023-05-27T13:11:33;8.57;;;4.13;;
47529;SDS011;33272;51.922;7.730;2023-05-27T13:14:00;7.20;;;3.50;;
47529;SDS011;33272;51.922;7.730;2023-05-27T13:16:27;8.33;;;4.30;;
47529;SDS011;33272;51.922;7.730;2023-05-27T13:18:55;9.70;;;3.97;;
47529;SDS011;33272;51.922;7.730;2023-05-27T13:21:22;8.63;;;3.90;;
47529;SDS011;33272;51.922;7.730;2023-05-27T13:23:49;6.03;;;4.03;;
47529;SDS011;33272;51.922;7.730;2023-05-27T13:26:17;9.40;;;4.00;;
47529;SDS011;33272;51.922;7.730;2023-05-27T13:28:45;7.90;;;3.60;;
47529;SDS011;33272;51.922;7.730;2023-05-27T13:31:12;8.30;;;3.87;;
47529;SDS011;33272;51.922;7.730;2023-05-27T13:33:39;8.53;;;3.90;;
47529;SDS011;33272;51.922;7.730;2023-05-27T13:36:07;5.23;;;3.23;;
47529;SDS011;33272;51.922;7.730;2023-05-27T13:38:34;6.43;;;3.77;;
47529;SDS011;33272;51.922;7.730;2023-05-27T13:41:01;9.00;;;3.67;;
47529;SDS011;33272;51.922;7.730;2023-05-27T13:43:29;7.57;;;3.57;;
47529;SDS011;33272;51.922;7.730;2023-05-27T13:45:56;9.70;;;4.00;;
47529;SDS011;33272;51.922;7.730;2023-05-27T13:48:23;7.70;;;3.30;;
47529;SDS011;33272;51.922;7.730;2023-05-27T13:50:50;6.33;;;3.27;;
47529;SDS011;33272;51.922;7.730;2023-05-27T13:53:17;7.33;;;3.00;;
47529;SDS011;33272;51.922;7.730;2023-05-27T13:55:44;8.07;;;3.73;;
47529;SDS011;33272;51.922;7.730;2023-05-27T13:58:12;9.27;;;3.40;;
47529;SDS011;33272;51.922;7.730;2023-05-27T14:00:40;6.67;;;3.77;;
47529;SDS011;33272;51.922;7.730;2023-05-27T14:03:07;6.80;;;3.90;;
47529;SDS011;33272;51.922;7.730;2023-05-27T14:05:34;7.43;;;3.20;;
47529;SDS011;33272;51.922;7.730;2023-05-27T14:08:01;4.87;;;3.50;;
47529;SDS011;33272;51.922;7.730;2023-05-27T14:10:28;7.17;;;3.03;;
47529;SDS011;33272;51.922;7.730;2023-05-27T14:12:56;7.17;;;3.90;;
47529;SDS011;33272;51.922;7.730;2023-05-27T14:15:23;8.07;;;3.37;;
47529;SDS011;33272;51.922;7.730;2023-05-27T14:17:54;7.17;;;3.73;;
47529;SDS011;33272;51.922;7.730;2023-05-27T14:20:21;5.67;;;3.43;;
47529;SDS011;33272;51.922;7.730;2023-05-27T14:22:48;6.77;;;3.40;;
47529;SDS011;33272;51.922;7.730;2023-05-27T14:25:16;10.80;;;4.23;;
47529;SDS011;33272;51.922;7.730;2023-05-27T14:27:44;11.40;;;4.57;;
47529;SDS011;33272;51.922;7.730;2023-05-27T14:30:11;5.57;;;3.60;;
47529;SDS011;33272;51.922;7.730;2023-05-27T14:32:39;7.27;;;3.70;;
47529;SDS011;33272;51.922;7.730;2023-05-27T14:35:08;6.63;;;2.90;;
47529;SDS011;33272;51.922;7.730;2023-05-27T14:37:35;3.53;;;2.77;;
47529;SDS011;33272;51.922;7.730;2023-05-27T14:40:03;7.97;;;3.27;;
47529;SDS011;33272;51.922;7.730;2023-05-27T14:42:31;8.73;;;3.43;;